createdAt,value
2018-09-24T00:01:37.043Z,2.80
2018-09-24T00:06:40.931Z,2.50
2018-09-24T00:11:45.692Z,2.60
2018-09-24T00:16:49.573Z,2.40
2018-09-24T00:21:53.905Z,2.23
2018-09-24T00:26:57.603Z,2.23
2018-09-24T00:32:01.443Z,1.90
2018-09-24T00:37:05.139Z,2.20
2018-09-24T00:42:08.796Z,2.20
2018-09-24T00:47:12.636Z,1.97
2018-09-24T00:52:16.320Z,2.30
2018-09-24T00:57:20.157Z,2.70
2018-09-24T01:02:23.857Z,2.50
2018-09-24T01:07:28.180Z,2.27
2018-09-24T01:12:32.180Z,2.47
2018-09-24T01:17:36.166Z,2.03
2018-09-24T01:22:39.972Z,2.00
2018-09-24T01:27:44.201Z,2.20
2018-09-24T01:32:48.112Z,2.60
2018-09-24T01:37:52.111Z,2.30
2018-09-24T01:42:55.935Z,2.77
2018-09-24T01:47:59.585Z,2.40
2018-09-24T01:53:15.687Z,1.90
2018-09-24T01:58:19.583Z,2.33
2018-09-24T02:03:25.696Z,2.47
2018-09-24T02:08:29.560Z,2.33
2018-09-24T02:13:33.476Z,3.30
2018-09-24T02:29:33.418Z,3.20
2018-09-24T02:34:37.292Z,3.13
2018-09-24T02:39:41.294Z,3.40
2018-09-24T02:44:45.196Z,3.37
2018-09-24T02:49:49.156Z,3.33
2018-09-24T02:54:52.974Z,4.03
2018-09-24T02:59:56.790Z,3.97
2018-09-24T03:05:00.837Z,4.07
2018-09-24T03:10:04.456Z,4.43
2018-09-24T03:15:08.165Z,3.93
2018-09-24T03:20:13.751Z,4.50
2018-09-24T03:25:18.232Z,4.70
2018-09-24T03:30:22.073Z,4.57
2018-09-24T03:35:25.763Z,4.47
2018-09-24T03:40:29.613Z,5.27
2018-09-24T03:45:33.453Z,4.80
2018-09-24T03:50:37.655Z,5.20
2018-09-24T03:55:41.913Z,5.60
2018-09-24T04:00:46.059Z,5.93
2018-09-24T04:05:55.520Z,5.37
2018-09-24T04:11:04.468Z,5.23
2018-09-24T04:16:17.137Z,5.53
2018-09-24T04:21:26.636Z,5.07
2018-09-24T04:26:49.304Z,5.50
2018-09-24T04:31:58.604Z,5.30
2018-09-24T04:37:07.507Z,5.30
2018-09-24T04:42:16.568Z,5.40
2018-09-24T04:47:25.637Z,4.67
2018-09-24T04:52:34.676Z,5.30
2018-09-24T04:57:46.834Z,5.50
2018-09-24T05:02:55.913Z,5.30
2018-09-24T05:08:05.134Z,5.43
2018-09-24T05:13:14.217Z,5.17
2018-09-24T05:18:33.045Z,4.97
2018-09-24T05:23:41.929Z,4.97
2018-09-24T05:29:00.712Z,5.27
2018-09-24T05:34:10.120Z,5.10
2018-09-24T05:39:29.579Z,5.37
2018-09-24T05:44:38.833Z,5.30
2018-09-24T05:49:47.754Z,5.20
2018-09-24T05:54:57.111Z,5.77
2018-09-24T06:00:06.191Z,5.23
2018-09-24T06:05:15.588Z,5.20
2018-09-24T06:10:24.339Z,5.33
2018-09-24T06:15:33.325Z,5.10
2018-09-24T06:20:42.825Z,4.83
2018-09-24T06:25:51.680Z,5.10
2018-09-24T06:31:08.869Z,5.33
2018-09-24T06:36:17.939Z,5.43
2018-09-24T06:41:26.839Z,5.87
2018-09-24T06:46:36.352Z,5.00
2018-09-24T06:51:59.000Z,5.83
2018-09-24T06:57:07.923Z,4.90
2018-09-24T07:02:17.059Z,5.43
2018-09-24T07:07:26.113Z,4.93
2018-09-24T07:12:35.134Z,4.93
2018-09-24T07:17:44.185Z,5.33
2018-09-24T07:22:53.091Z,5.10
2018-09-24T07:28:02.321Z,4.47
2018-09-24T07:33:11.318Z,5.37
2018-09-24T07:38:20.160Z,4.50
2018-09-24T07:43:29.160Z,4.60
2018-09-24T07:48:38.260Z,3.30
2018-09-24T07:53:47.623Z,3.13
2018-09-24T07:58:56.500Z,2.87
2018-09-24T08:04:05.467Z,2.30
2018-09-24T08:09:21.061Z,2.70
2018-09-24T08:14:30.293Z,2.33
2018-09-24T08:19:39.068Z,2.50
2018-09-24T08:24:48.132Z,2.07
2018-09-24T08:29:57.075Z,1.90
2018-09-24T08:35:06.119Z,2.37
2018-09-24T08:40:15.044Z,1.90
2018-09-24T08:45:24.104Z,2.80
2018-09-24T08:50:33.152Z,2.70
2018-09-24T08:55:42.540Z,2.00
2018-09-24T09:00:51.788Z,1.60
2018-09-24T09:06:00.709Z,1.77
2018-09-24T09:11:09.964Z,1.50
2018-09-24T09:16:18.975Z,1.23
2018-09-24T09:21:28.300Z,1.63
2018-09-24T09:26:37.621Z,1.40
2018-09-24T09:31:46.493Z,1.43
2018-09-24T09:36:56.105Z,1.57
2018-09-24T09:42:17.955Z,1.23
2018-09-24T09:47:26.890Z,1.60
2018-09-24T09:52:36.098Z,1.40
2018-09-24T09:57:45.229Z,1.50
2018-09-24T10:02:54.081Z,1.37
2018-09-24T10:08:13.266Z,1.03
2018-09-24T10:13:22.823Z,1.20
2018-09-24T10:18:31.685Z,1.00
2018-09-24T10:23:40.737Z,0.80
2018-09-24T10:28:49.967Z,0.77
2018-09-24T10:33:58.952Z,1.20
2018-09-24T10:39:08.004Z,0.97
2018-09-24T10:44:17.112Z,1.10
2018-09-24T10:49:27.411Z,1.00
2018-09-24T10:54:36.474Z,0.80
2018-09-24T10:59:45.932Z,1.07
2018-09-24T11:04:54.787Z,1.10
2018-09-24T11:10:05.538Z,0.93
2018-09-24T11:15:14.730Z,0.90
2018-09-24T11:20:23.768Z,0.97
2018-09-24T11:25:32.711Z,1.37
2018-09-24T11:30:41.655Z,1.00
2018-09-24T11:35:50.549Z,1.10
2018-09-24T11:40:59.450Z,0.80
2018-09-24T11:46:08.464Z,1.20
2018-09-24T11:51:18.164Z,0.90
2018-09-24T11:56:27.219Z,0.80
2018-09-24T12:01:36.565Z,1.10
2018-09-24T12:06:45.525Z,1.13
2018-09-24T12:11:54.519Z,1.00
2018-09-24T12:17:03.922Z,0.90
2018-09-24T12:22:12.925Z,0.80
2018-09-24T12:27:22.026Z,0.77
2018-09-24T12:32:31.309Z,0.50
2018-09-24T12:37:40.697Z,0.60
2018-09-24T12:42:49.685Z,0.50
2018-09-24T12:47:59.033Z,0.90
2018-09-24T12:53:07.909Z,0.70
2018-09-24T12:58:20.137Z,0.70
2018-09-24T13:03:44.720Z,0.80
2018-09-24T13:09:05.263Z,1.07
2018-09-24T13:14:14.128Z,1.23
2018-09-24T13:19:23.052Z,1.00
2018-09-24T13:24:32.023Z,1.03
2018-09-24T13:29:41.116Z,1.23
2018-09-24T13:34:50.092Z,1.40
2018-09-24T13:39:59.322Z,1.03
2018-09-24T13:45:08.459Z,1.07
2018-09-24T13:50:17.373Z,1.00
2018-09-24T13:55:26.630Z,0.80
2018-09-24T14:00:35.692Z,1.10
2018-09-24T14:05:44.712Z,0.80
2018-09-24T14:10:53.797Z,1.00
2018-09-24T14:16:03.124Z,0.90
2018-09-24T14:21:12.190Z,1.17
2018-09-24T14:26:21.121Z,1.63
2018-09-24T14:31:30.123Z,1.00
2018-09-24T14:36:44.806Z,1.00
2018-09-24T14:41:54.124Z,1.30
2018-09-24T14:47:03.240Z,1.00
2018-09-24T14:52:12.257Z,1.40
2018-09-24T14:57:21.495Z,1.10
2018-09-24T15:02:30.362Z,1.27
2018-09-24T15:07:40.016Z,1.20
2018-09-24T15:12:49.286Z,1.53
2018-09-24T15:18:05.377Z,1.60
2018-09-24T15:23:14.759Z,1.20
2018-09-24T15:28:24.404Z,1.10
2018-09-24T15:33:33.577Z,1.00
2018-09-24T15:38:42.457Z,1.30
2018-09-24T15:43:58.013Z,1.33
2018-09-24T15:49:07.243Z,1.10
2018-09-24T15:54:16.425Z,1.00
2018-09-24T15:59:25.536Z,1.23
2018-09-24T16:04:34.800Z,1.37
2018-09-24T16:09:44.198Z,1.50
2018-09-24T16:14:53.667Z,1.70
2018-09-24T16:20:02.700Z,1.40
2018-09-24T16:25:11.894Z,1.50
2018-09-24T16:30:21.052Z,1.30
2018-09-24T16:35:30.298Z,1.70
2018-09-24T16:40:40.037Z,1.30
2018-09-24T16:45:49.053Z,1.20
2018-09-24T16:50:58.031Z,0.90
2018-09-24T16:56:07.185Z,1.00
2018-09-24T17:01:16.181Z,0.97
2018-09-24T17:06:25.398Z,0.90
2018-09-24T17:11:34.319Z,0.90
2018-09-24T17:16:43.607Z,1.23
2018-09-24T17:21:53.203Z,1.50
2018-09-24T17:27:12.193Z,1.27
2018-09-24T17:32:21.634Z,1.50
2018-09-24T17:37:30.662Z,1.47
2018-09-24T17:42:40.033Z,1.77
2018-09-24T17:47:56.231Z,1.67
2018-09-24T17:53:05.325Z,1.60
2018-09-24T17:58:14.914Z,1.30
2018-09-24T18:03:23.877Z,1.30
2018-09-24T18:08:32.713Z,1.47
2018-09-24T18:13:41.804Z,1.30
2018-09-24T18:18:51.252Z,1.10
2018-09-24T18:24:00.324Z,1.43
2018-09-24T18:29:11.469Z,1.23
2018-09-24T18:34:20.351Z,1.23
2018-09-24T18:39:29.552Z,1.20
2018-09-24T18:44:39.104Z,1.40
2018-09-24T18:49:48.591Z,1.80
2018-09-24T18:54:58.046Z,1.30
2018-09-24T19:00:07.035Z,1.43
2018-09-24T19:05:16.014Z,1.60
2018-09-24T19:10:24.898Z,2.00
2018-09-24T19:15:33.850Z,1.57
2018-09-24T19:20:43.332Z,1.37
2018-09-24T19:25:52.449Z,1.37
2018-09-24T19:31:01.653Z,1.50
2018-09-24T19:36:10.886Z,1.50
2018-09-24T19:41:20.155Z,2.00
2018-09-24T19:46:29.020Z,2.10
2018-09-24T19:51:38.314Z,2.27
2018-09-24T19:57:00.451Z,2.30
2018-09-24T20:02:09.645Z,2.40
2018-09-24T20:07:18.755Z,2.57
2018-09-24T20:12:27.674Z,2.10
2018-09-24T20:17:36.721Z,2.50
2018-09-24T20:22:45.753Z,2.40
2018-09-24T20:28:02.552Z,2.40
2018-09-24T20:33:11.363Z,1.90
2018-09-24T20:38:20.447Z,2.10
2018-09-24T20:43:29.689Z,2.27
2018-09-24T20:48:38.726Z,2.60
2018-09-24T20:53:48.262Z,2.00
2018-09-24T20:59:04.576Z,2.00
2018-09-24T21:04:14.384Z,2.30
2018-09-24T21:09:23.895Z,2.40
2018-09-24T21:14:32.972Z,2.43
2018-09-24T21:19:42.051Z,1.90
2018-09-24T21:24:51.045Z,1.80
2018-09-24T21:30:00.440Z,1.73
2018-09-24T21:35:09.539Z,1.80
2018-09-24T21:40:18.758Z,1.67
2018-09-24T21:45:27.836Z,1.33
2018-09-24T21:50:36.692Z,1.90
2018-09-24T21:55:45.743Z,1.80
2018-09-24T22:00:54.760Z,2.23
2018-09-24T22:06:03.805Z,2.13
2018-09-24T22:11:12.723Z,2.23
2018-09-24T22:16:21.810Z,1.70
2018-09-24T22:21:31.200Z,1.70
2018-09-24T22:26:40.608Z,2.00
2018-09-24T22:31:49.474Z,2.30
2018-09-24T22:36:58.437Z,2.40
2018-09-24T22:42:07.574Z,1.60
2018-09-24T22:53:01.109Z,1.93
2018-09-24T22:58:10.028Z,1.70
2018-09-24T23:03:19.141Z,1.60
2018-09-24T23:08:28.000Z,1.90
2018-09-24T23:13:37.026Z,1.83
2018-09-24T23:18:49.253Z,1.63
2018-09-24T23:23:58.317Z,1.97
2018-09-24T23:29:14.515Z,2.20
2018-09-24T23:34:23.572Z,2.00
2018-09-24T23:39:33.615Z,1.70
2018-09-24T23:44:42.647Z,1.80
2018-09-24T23:49:51.668Z,1.83
2018-09-24T23:55:00.513Z,1.93
